createdAt,value
2022-11-12T18:58:52.866Z,101264.09
2022-11-12T18:59:49.744Z,101261.38
2022-11-12T19:00:44.814Z,101269.28
2022-11-12T19:01:37.732Z,101261.38
2022-11-12T19:02:09.243Z,101263.00
2022-11-12T19:02:40.647Z,101263.00
2022-11-12T19:03:12.098Z,101267.38
2022-11-12T19:03:43.512Z,101267.38
2022-11-12T19:04:14.990Z,101261.09
2022-11-12T19:04:46.446Z,101263.00
2022-11-12T19:05:17.843Z,101265.75
2022-11-12T19:05:49.304Z,101255.66
2022-11-12T19:06:20.664Z,101263.56
2022-11-12T19:06:52.238Z,101260.28
2022-11-12T19:07:23.811Z,101263.84
2022-11-12T19:08:03.755Z,101267.38
2022-11-12T19:09:50.705Z,101258.13
2022-11-12T19:10:47.494Z,101263.56
2022-11-12T19:11:43.985Z,101263.56
2022-11-12T19:12:34.057Z,101261.66
2022-11-12T19:13:22.224Z,101257.28
2022-11-12T19:14:09.611Z,101252.66
2022-11-12T19:16:01.942Z,101251.84
2022-11-12T19:17:02.841Z,101257.28
2022-11-12T19:18:03.452Z,101251.00
2022-11-12T19:19:08.856Z,101256.47
2022-11-12T19:20:09.624Z,101246.63
2022-11-12T19:21:03.962Z,101252.66
2022-11-12T19:22:56.892Z,101252.66
2022-11-12T19:23:52.710Z,101251.59
2022-11-12T19:24:41.728Z,101253.50
2022-11-12T19:25:27.732Z,101255.66
2022-11-12T19:26:11.782Z,101255.38
2022-11-12T19:28:04.412Z,101253.50
2022-11-12T19:28:54.775Z,101252.66
2022-11-12T19:29:43.212Z,101257.28
2022-11-12T19:31:34.270Z,101253.75
2022-11-12T19:32:38.042Z,101251.84
2022-11-12T19:34:30.629Z,101248.28
2022-11-12T19:35:21.010Z,101249.94
2022-11-12T19:36:03.587Z,101246.13
2022-11-12T19:36:43.197Z,101248.03
2022-11-12T19:37:32.892Z,101243.66
2022-11-12T19:38:09.340Z,101248.03
2022-11-12T19:38:44.886Z,101253.50
2022-11-12T19:39:21.625Z,101249.72
2022-11-12T19:39:58.329Z,101244.47
2022-11-12T19:40:34.189Z,101240.94
2022-11-12T19:41:16.108Z,101248.28
2022-11-12T19:41:54.169Z,101247.22
2022-11-12T19:42:29.351Z,101249.09
2022-11-12T19:43:05.932Z,101254.31
2022-11-12T19:43:42.379Z,101249.09
2022-11-12T19:44:18.587Z,101250.75
2022-11-12T19:44:54.408Z,101250.75
2022-11-12T19:45:30.952Z,101243.66
2022-11-12T19:46:06.775Z,101247.22
2022-11-12T19:46:43.063Z,101248.03
2022-11-12T19:47:18.770Z,101247.22
2022-11-12T19:47:55.081Z,101244.47
2022-11-12T19:48:37.756Z,101245.31
2022-11-12T19:49:31.285Z,101243.66
2022-11-12T19:50:24.970Z,101238.19
2022-11-12T19:51:37.827Z,101240.94
2022-11-12T19:52:09.361Z,101241.75
2022-11-12T19:52:40.878Z,101240.94
2022-11-12T19:53:12.287Z,101242.00
2022-11-12T19:53:43.742Z,101247.22
2022-11-12T19:54:15.266Z,101242.81
2022-11-12T19:54:46.686Z,101244.47
2022-11-12T19:55:18.162Z,101245.56
2022-11-12T19:55:49.624Z,101247.47
2022-11-12T19:56:21.205Z,101246.38
2022-11-12T19:56:52.729Z,101239.28
2022-11-12T19:57:24.248Z,101244.47
2022-11-12T19:57:55.685Z,101243.66
2022-11-12T19:58:27.592Z,101240.09
2022-11-12T19:58:59.287Z,101236.56
2022-11-12T19:59:30.756Z,101242.81
2022-11-12T20:00:02.184Z,101248.28
2022-11-12T20:00:33.697Z,101246.38
2022-11-12T20:01:05.227Z,101242.81
2022-11-12T20:01:36.766Z,101241.19
2022-11-12T20:02:08.317Z,101237.38
2022-11-12T20:02:39.723Z,101231.09
2022-11-12T20:03:11.154Z,101233.81
2022-11-12T20:03:42.610Z,101240.09
2022-11-12T20:04:14.055Z,101230.84
2022-11-12T20:04:45.553Z,101230.84
2022-11-12T20:05:19.938Z,101240.09
2022-11-12T20:05:51.326Z,101239.28
2022-11-12T20:06:22.742Z,101230.28
2022-11-12T20:06:54.230Z,101238.44
2022-11-12T20:07:25.857Z,101226.72
2022-11-12T20:07:57.333Z,101234.09
2022-11-12T20:08:29.018Z,101224.00
2022-11-12T20:09:00.643Z,101231.34
2022-11-12T20:09:32.196Z,101236.81
2022-11-12T20:10:03.772Z,101234.91
2022-11-12T20:10:35.188Z,101240.34
2022-11-12T20:11:06.617Z,101230.53
2022-11-12T20:11:38.026Z,101246.91
2022-11-12T20:12:09.412Z,101239.53
2022-11-12T20:12:40.864Z,101234.91
2022-11-12T20:13:12.250Z,101241.19
2022-11-12T20:13:43.719Z,101243.91
2022-11-12T20:14:15.208Z,101238.44
2022-11-12T20:14:46.618Z,101242.28
2022-11-12T20:15:18.152Z,101243.91
2022-11-12T20:15:49.578Z,101243.09
2022-11-12T20:16:25.575Z,101241.44
2022-11-12T20:16:57.245Z,101245.00
2022-11-12T20:17:28.697Z,101242.28
2022-11-12T20:18:00.196Z,101245.00
2022-11-12T20:18:31.587Z,101243.91
2022-11-12T20:19:02.951Z,101240.34
2022-11-12T20:19:34.460Z,101237.91
2022-11-12T20:20:07.620Z,101227.53
2022-11-12T20:20:39.074Z,101241.19
2022-11-12T20:21:10.613Z,101242.28
2022-11-12T20:21:42.037Z,101238.44
2022-11-12T20:22:13.535Z,101233.00
2022-11-12T20:22:44.976Z,101229.44
2022-11-12T20:23:16.531Z,101237.63
2022-11-12T20:23:47.974Z,101237.63
2022-11-12T20:24:19.409Z,101230.28
2022-11-12T20:24:50.869Z,101229.44
2022-11-12T20:25:22.313Z,101228.63
2022-11-12T20:25:53.714Z,101227.53
2022-11-12T20:26:25.178Z,101224.25
2022-11-12T20:26:56.668Z,101225.91
2022-11-12T20:27:28.065Z,101225.91
2022-11-12T20:27:59.458Z,101220.44
2022-11-12T20:28:30.895Z,101228.38
2022-11-12T20:29:02.387Z,101221.53
2022-11-12T20:29:33.847Z,101219.34
2022-11-12T20:30:05.313Z,101224.00
2022-11-12T20:30:36.779Z,101220.44
2022-11-12T20:31:08.223Z,101227.53
2022-11-12T20:31:39.720Z,101221.00
2022-11-12T20:32:11.205Z,101222.09
2022-11-12T20:32:42.613Z,101214.16
2022-11-12T20:33:14.088Z,101216.63
2022-11-12T20:33:48.377Z,101214.97
2022-11-12T20:34:19.806Z,101208.69
2022-11-12T20:34:51.285Z,101217.72
2022-11-12T20:35:22.800Z,101213.06
2022-11-12T20:35:54.223Z,101214.97
2022-11-12T20:36:25.705Z,101218.53
2022-11-12T20:36:57.199Z,101223.16
2022-11-12T20:37:28.637Z,101220.44
2022-11-12T20:38:00.038Z,101218.53
2022-11-12T20:38:31.447Z,101222.59
2022-11-12T20:39:02.923Z,101224.25
2022-11-12T20:39:34.398Z,101223.16
2022-11-12T20:40:05.827Z,101220.44
2022-11-12T20:40:37.220Z,101221.25
2022-11-12T20:41:08.688Z,101222.34
2022-11-12T20:41:40.098Z,101225.91
2022-11-12T20:42:11.643Z,101219.63
2022-11-12T20:42:43.032Z,101221.53
2022-11-12T20:43:14.451Z,101216.63
2022-11-12T20:43:45.839Z,101217.97
2022-11-12T20:44:17.255Z,101213.34
2022-11-12T20:44:48.642Z,101213.34
2022-11-12T20:45:20.060Z,101213.34
2022-11-12T20:45:51.434Z,101220.44
2022-11-12T20:46:22.846Z,101214.16
2022-11-12T20:46:54.280Z,101214.97
2022-11-12T20:47:25.878Z,101212.25
2022-11-12T20:47:57.349Z,101215.81
2022-11-12T20:48:29.013Z,101218.78
2022-11-12T20:49:00.610Z,101215.53
2022-11-12T20:49:32.111Z,101213.06
2022-11-12T20:50:03.695Z,101213.91
2022-11-12T20:50:35.198Z,101216.63
2022-11-12T20:51:22.740Z,101217.72
2022-11-12T20:51:54.948Z,101217.72
2022-11-12T20:52:26.395Z,101216.63
2022-11-12T20:52:57.789Z,101213.34
2022-11-12T20:53:29.248Z,101208.69
2022-11-12T20:54:01.010Z,101210.59
2022-11-12T20:54:32.522Z,101213.34
2022-11-12T20:55:03.913Z,101212.50
2022-11-12T20:55:35.422Z,101205.41
2022-11-12T20:56:06.854Z,101211.69
2022-11-12T20:56:38.374Z,101210.88
2022-11-12T20:57:09.831Z,101212.78
2022-11-12T20:57:41.289Z,101207.06
2022-11-12T20:58:12.789Z,101211.69
2022-11-12T20:58:44.245Z,101214.41
2022-11-12T20:59:15.760Z,101210.88
2022-11-12T20:59:51.111Z,101217.16
2022-11-12T21:00:24.312Z,101213.59
2022-11-12T21:00:56.066Z,101217.97
2022-11-12T21:01:27.594Z,101214.97
2022-11-12T21:01:59.152Z,101211.44
2022-11-12T21:02:30.598Z,101210.88
2022-11-12T21:03:02.088Z,101209.78
2022-11-12T21:03:33.719Z,101211.94
2022-11-12T21:04:05.154Z,101208.97
2022-11-12T21:04:36.598Z,101212.50
2022-11-12T21:05:08.016Z,101206.50
2022-11-12T21:05:39.399Z,101210.03
2022-11-12T21:06:10.816Z,101210.03
2022-11-12T21:06:42.322Z,101206.22
2022-11-12T21:07:13.920Z,101209.78
2022-11-12T21:07:45.355Z,101208.97
2022-11-12T21:08:16.794Z,101207.06
2022-11-12T21:08:48.227Z,101208.69
2022-11-12T21:09:19.665Z,101200.78
2022-11-12T21:09:51.186Z,101207.88
2022-11-12T21:10:22.694Z,101199.69
2022-11-12T21:10:54.147Z,101209.53
2022-11-12T21:11:28.482Z,101202.41
2022-11-12T21:11:59.902Z,101211.69
2022-11-12T21:12:31.407Z,101206.22
2022-11-12T21:13:02.857Z,101202.41
2022-11-12T21:13:34.318Z,101203.25
2022-11-12T21:14:08.702Z,101202.41
2022-11-12T21:14:40.137Z,101207.06
2022-11-12T21:15:11.557Z,101208.97
2022-11-12T21:15:43.003Z,101203.50
2022-11-12T21:16:14.423Z,101203.50
2022-11-12T21:16:45.903Z,101200.78
2022-11-12T21:17:17.270Z,101200.78
2022-11-12T21:17:48.757Z,101200.78
2022-11-12T21:18:20.183Z,101204.59
2022-11-12T21:18:51.659Z,101201.03
2022-11-12T21:19:23.121Z,101202.94
2022-11-12T21:19:54.512Z,101202.13
2022-11-12T21:20:25.952Z,101196.66
2022-11-12T21:20:57.337Z,101196.66
2022-11-12T21:21:31.487Z,101196.41
2022-11-12T21:22:03.270Z,101197.47
2022-11-12T21:22:34.875Z,101192.59
2022-11-12T21:23:06.312Z,101193.94
2022-11-12T21:23:37.827Z,101195.00
2022-11-12T21:24:09.222Z,101199.13
2022-11-12T21:24:40.613Z,101197.47
2022-11-12T21:25:12.034Z,101201.84
2022-11-12T21:25:43.481Z,101198.31
2022-11-12T21:26:14.998Z,101192.84
2022-11-12T21:26:46.450Z,101196.41
2022-11-12T21:27:17.904Z,101196.41
2022-11-12T21:27:49.405Z,101193.94
2022-11-12T21:28:20.859Z,101197.75
2022-11-12T21:28:52.304Z,101195.00
2022-11-12T21:29:23.715Z,101184.94
2022-11-12T21:29:55.170Z,101186.84
2022-11-12T21:30:26.604Z,101186.00
2022-11-12T21:30:58.106Z,101192.84
2022-11-12T21:31:29.560Z,101191.19
2022-11-12T21:32:01.068Z,101192.28
2022-11-12T21:32:32.607Z,101193.94
2022-11-12T21:33:04.045Z,101188.22
2022-11-12T21:33:35.507Z,101191.19
2022-11-12T21:34:06.968Z,101191.19
2022-11-12T21:34:38.461Z,101184.09
2022-11-12T21:35:09.858Z,101192.84
2022-11-12T21:35:41.337Z,101191.19
2022-11-12T21:36:16.355Z,101185.75
2022-11-12T21:36:48.176Z,101188.47
2022-11-12T21:37:19.656Z,101191.19
2022-11-12T21:37:51.135Z,101180.28
2022-11-12T21:38:22.616Z,101193.13
2022-11-12T21:38:54.050Z,101180.28
2022-11-12T21:39:25.575Z,101184.09
2022-11-12T21:39:57.075Z,101183.03
2022-11-12T21:40:28.577Z,101192.84
2022-11-12T21:41:00.061Z,101190.38
2022-11-12T21:41:31.488Z,101194.75
2022-11-12T21:42:02.953Z,101184.66
2022-11-12T21:42:34.402Z,101185.50
2022-11-12T21:43:05.996Z,101177.31
2022-11-12T21:43:37.399Z,101184.09
2022-11-12T21:44:08.836Z,101185.19
2022-11-12T21:44:40.234Z,101184.94
2022-11-12T21:45:11.693Z,101182.19
2022-11-12T21:45:43.132Z,101182.19
2022-11-12T21:46:14.563Z,101184.94
2022-11-12T21:46:46.039Z,101184.94
2022-11-12T21:47:17.436Z,101180.28
2022-11-12T21:47:48.889Z,101179.47
2022-11-12T21:48:20.352Z,101181.38
2022-11-12T21:48:54.712Z,101182.75
2022-11-12T21:49:26.783Z,101174.00
2022-11-12T21:49:58.213Z,101183.84
2022-11-12T21:50:29.543Z,101179.47
2022-11-12T21:51:01.016Z,101182.75
2022-11-12T21:51:32.398Z,101169.13
2022-11-12T21:52:03.766Z,101174.84
2022-11-12T21:52:35.212Z,101170.19
2022-11-12T21:53:06.674Z,101171.84
2022-11-12T21:53:38.065Z,101169.38
2022-11-12T21:54:09.500Z,101173.19
2022-11-12T21:54:40.882Z,101165.81
2022-11-12T21:55:12.288Z,101170.47
2022-11-12T21:55:43.674Z,101164.19
2022-11-12T21:56:15.175Z,101174.84
2022-11-12T21:56:46.634Z,101165.00
2022-11-12T21:57:18.982Z,101171.28
2022-11-12T21:57:50.506Z,101174.84
2022-11-12T21:58:21.989Z,101171.84
2022-11-12T21:58:53.403Z,101169.94
2022-11-12T21:59:24.919Z,101171.03
2022-11-12T22:00:08.216Z,101171.28
2022-11-12T22:00:47.829Z,101166.66
2022-11-12T22:01:19.252Z,101161.44
2022-11-12T22:01:50.737Z,101162.28
2022-11-12T22:02:22.167Z,101171.28
2022-11-12T22:02:53.670Z,101166.66
2022-11-12T22:03:25.203Z,101169.38
2022-11-12T22:03:56.598Z,101168.56
2022-11-12T22:04:28.043Z,101163.91
2022-11-12T22:04:59.489Z,101171.59
2022-11-12T22:05:30.970Z,101169.13
2022-11-12T22:06:05.162Z,101163.66
2022-11-12T22:06:36.680Z,101169.13
2022-11-12T22:07:08.198Z,101160.09
2022-11-12T22:07:39.702Z,101165.56
2022-11-12T22:08:11.155Z,101165.81
2022-11-12T22:08:42.631Z,101166.66
2022-11-12T22:09:14.122Z,101160.38
2022-11-12T22:09:45.548Z,101168.56
2022-11-12T22:10:16.955Z,101171.03
2022-11-12T22:10:48.357Z,101173.75
2022-11-12T22:11:19.865Z,101169.38
2022-11-12T22:11:51.357Z,101171.28
2022-11-12T22:12:22.793Z,101176.47
2022-11-12T22:13:24.745Z,101174.84
2022-11-12T22:13:45.699Z,101177.31
2022-11-12T22:14:17.093Z,101172.38
2022-11-12T22:14:48.565Z,101174.84
2022-11-12T22:15:24.169Z,101174.84
2022-11-12T22:15:55.965Z,101177.31
2022-11-12T22:16:27.401Z,101178.38
2022-11-12T22:16:58.856Z,101166.66
2022-11-12T22:17:30.374Z,101167.72
2022-11-12T22:18:01.864Z,101176.75
2022-11-12T22:18:33.243Z,101174.84
2022-11-12T22:19:04.792Z,101171.84
2022-11-12T22:19:36.225Z,101176.47
2022-11-12T22:20:07.711Z,101173.19
2022-11-12T22:20:39.120Z,101166.91
2022-11-12T22:21:10.569Z,101166.91
2022-11-12T22:21:42.004Z,101163.09
2022-11-12T22:22:13.443Z,101168.56
2022-11-12T22:22:44.956Z,101167.47
2022-11-12T22:23:19.231Z,101161.19
2022-11-12T22:23:50.616Z,101162.84
2022-11-12T22:24:22.097Z,101160.38
2022-11-12T22:24:53.535Z,101156.00
2022-11-12T22:25:24.986Z,101154.09
2022-11-12T22:25:56.511Z,101165.00
2022-11-12T22:26:27.948Z,101161.44
2022-11-12T22:27:05.102Z,101158.72
2022-11-12T22:27:37.014Z,101164.19
2022-11-12T22:28:08.431Z,101164.19
2022-11-12T22:28:39.910Z,101160.63
2022-11-12T22:29:11.309Z,101158.97
2022-11-12T22:29:42.718Z,101166.91
2022-11-12T22:30:14.172Z,101162.28
2022-11-12T22:30:45.605Z,101165.00
2022-11-12T22:31:17.023Z,101161.44
2022-11-12T22:31:48.481Z,101165.81
2022-11-12T22:32:19.940Z,101168.81
2022-11-12T22:32:51.424Z,101158.47
2022-11-12T22:33:22.854Z,101159.56
2022-11-12T22:33:54.400Z,101161.44
2022-11-12T22:34:25.920Z,101159.81
2022-11-12T22:34:57.393Z,101161.44
2022-11-12T22:35:28.813Z,101159.81
2022-11-12T22:36:00.226Z,101163.34
2022-11-12T22:36:31.755Z,101150.28
2022-11-12T22:37:03.161Z,101160.88
2022-11-12T22:37:34.617Z,101161.44
2022-11-12T22:38:06.060Z,101162.28
2022-11-12T22:38:37.540Z,101152.44
2022-11-12T22:39:09.066Z,101156.00
2022-11-12T22:39:40.471Z,101156.00
2022-11-12T22:40:13.555Z,101158.72
2022-11-12T22:40:45.284Z,101150.53
2022-11-12T22:41:16.725Z,101161.44
2022-11-12T22:41:48.202Z,101154.34
2022-11-12T22:42:19.596Z,101155.47
2022-11-12T22:42:51.081Z,101156.25
2022-11-12T22:43:22.535Z,101157.38
2022-11-12T22:43:54.034Z,101156.28
2022-11-12T22:44:25.533Z,101156.03
2022-11-12T22:44:56.966Z,101157.63
2022-11-12T22:45:28.381Z,101154.66
2022-11-12T22:45:59.776Z,101150.03
2022-11-12T22:46:31.205Z,101148.94
2022-11-12T22:47:02.684Z,101150.84
2022-11-12T22:47:34.099Z,101149.75
2022-11-12T22:48:05.605Z,101148.94
2022-11-12T22:48:37.059Z,101144.84
2022-11-12T22:49:08.491Z,101151.41
2022-11-12T22:49:41.218Z,101153.31
2022-11-12T22:50:12.676Z,101153.03
2022-11-12T22:50:44.204Z,101145.69
2022-11-12T22:51:15.658Z,101150.06
2022-11-12T22:51:47.072Z,101152.78
2022-11-12T22:52:18.544Z,101147.88
2022-11-12T22:52:50.365Z,101156.06
2022-11-12T22:53:22.011Z,101149.56
2022-11-12T22:53:53.537Z,101145.16
2022-11-12T22:54:26.829Z,101153.34
2022-11-12T22:54:58.302Z,101148.97
2022-11-12T22:55:31.923Z,101147.88
2022-11-12T22:56:03.353Z,101144.34
2022-11-12T22:56:40.110Z,101153.34
2022-11-12T22:57:11.541Z,101149.56
2022-11-12T22:57:43.062Z,101147.88
2022-11-12T22:58:14.453Z,101151.47
2022-11-12T22:58:45.915Z,101151.47
2022-11-12T22:59:17.481Z,101146.84
2022-11-12T22:59:48.974Z,101146.84
2022-11-12T23:00:20.464Z,101143.84
2022-11-12T23:00:52.002Z,101145.75
2022-11-12T23:01:23.465Z,101148.47
2022-11-12T23:01:55.030Z,101156.66
2022-11-12T23:02:26.536Z,101136.75
2022-11-12T23:02:57.982Z,101141.38
2022-11-12T23:03:29.393Z,101147.66
2022-11-12T23:04:00.789Z,101138.66
2022-11-12T23:04:32.267Z,101141.38
2022-11-12T23:05:03.823Z,101144.09
2022-11-12T23:05:35.315Z,101135.91
2022-11-12T23:06:06.729Z,101141.38
2022-11-12T23:06:43.188Z,101146.00
2022-11-12T23:07:16.904Z,101150.38
2022-11-12T23:07:51.192Z,101141.38
2022-11-12T23:08:25.448Z,101141.38
2022-11-12T23:08:57.028Z,101149.31
2022-11-12T23:09:28.584Z,101141.94
2022-11-12T23:09:59.990Z,101145.75
2022-11-12T23:10:31.488Z,101138.66
2022-11-12T23:11:03.017Z,101143.84
2022-11-12T23:11:34.524Z,101144.94
2022-11-12T23:12:05.976Z,101139.47
2022-11-12T23:12:37.433Z,101138.66
2022-11-12T23:13:08.914Z,101141.38
2022-11-12T23:13:40.365Z,101138.66
2022-11-12T23:14:11.814Z,101137.56
2022-11-12T23:14:43.241Z,101140.56
2022-11-12T23:15:17.384Z,101135.91
2022-11-12T23:15:48.876Z,101139.47
2022-11-12T23:16:20.842Z,101141.38
2022-11-12T23:16:52.309Z,101138.66
2022-11-12T23:17:23.707Z,101137.56
2022-11-12T23:17:57.813Z,101142.19
2022-11-12T23:18:29.691Z,101144.94
2022-11-12T23:19:01.407Z,101144.94
2022-11-12T23:19:32.781Z,101141.41
2022-11-12T23:20:05.454Z,101142.50
2022-11-12T23:20:39.904Z,101144.66
2022-11-12T23:21:11.432Z,101145.75
2022-11-12T23:21:42.858Z,101140.78
2022-11-12T23:22:14.408Z,101143.50
2022-11-12T23:22:45.863Z,101135.31
2022-11-12T23:23:17.387Z,101135.31
2022-11-12T23:23:48.828Z,101141.88
2022-11-12T23:24:20.329Z,101136.41
2022-11-12T23:24:51.872Z,101141.88
2022-11-12T23:25:23.377Z,101141.88
2022-11-12T23:25:54.813Z,101133.69
2022-11-12T23:26:29.099Z,101138.31
2022-11-12T23:27:00.539Z,101140.22
2022-11-12T23:27:31.949Z,101131.22
2022-11-12T23:28:03.495Z,101131.22
2022-11-12T23:28:35.065Z,101131.22
2022-11-12T23:29:06.544Z,101136.94
2022-11-12T23:29:37.929Z,101133.13
2022-11-12T23:30:09.413Z,101138.59
2022-11-12T23:30:40.829Z,101133.38
2022-11-12T23:31:12.263Z,101131.47
2022-11-12T23:31:46.684Z,101130.66
2022-11-12T23:32:18.061Z,101135.03
2022-11-12T23:32:49.456Z,101136.94
2022-11-12T23:33:21.021Z,101134.22
2022-11-12T23:33:52.527Z,101136.94
2022-11-12T23:34:25.922Z,101126.03
2022-11-12T23:34:57.341Z,101129.00
2022-11-12T23:35:28.768Z,101126.28
2022-11-12T23:36:00.227Z,101127.09
2022-11-12T23:36:31.655Z,101131.75
2022-11-12T23:37:03.117Z,101124.38
2022-11-12T23:37:34.539Z,101128.75
2022-11-12T23:38:06.038Z,101121.66
2022-11-12T23:38:37.424Z,101124.38
2022-11-12T23:39:08.835Z,101122.72
2022-11-12T23:39:40.347Z,101122.72
2022-11-12T23:40:11.759Z,101118.09
2022-11-12T23:40:43.165Z,101121.91
2022-11-12T23:41:14.603Z,101121.91
2022-11-12T23:41:45.994Z,101117.28
2022-11-12T23:42:17.434Z,101117.28
2022-11-12T23:42:48.845Z,101126.28
2022-11-12T23:43:20.343Z,101117.28
2022-11-12T23:43:51.765Z,101118.09
2022-11-12T23:44:23.158Z,101116.44
2022-11-12T23:44:54.697Z,101115.63
2022-11-12T23:45:26.152Z,101115.91
2022-11-12T23:45:57.696Z,101120.25
2022-11-12T23:46:29.133Z,101114.81
2022-11-12T23:47:00.639Z,101122.72
2022-11-12T23:47:32.047Z,101123.00
2022-11-12T23:48:06.606Z,101116.72
2022-11-12T23:48:38.035Z,101119.44
2022-11-12T23:49:09.456Z,101121.09
2022-11-12T23:49:40.867Z,101121.91
2022-11-12T23:50:12.399Z,101116.44
2022-11-12T23:50:43.807Z,101118.09
2022-11-12T23:51:15.268Z,101113.72
2022-11-12T23:51:46.738Z,101120.25
2022-11-12T23:52:19.049Z,101120.25
2022-11-12T23:52:50.614Z,101117.28
2022-11-12T23:53:22.095Z,101116.19
2022-11-12T23:53:53.548Z,101121.91
2022-11-12T23:54:25.007Z,101118.34
2022-11-12T23:54:56.476Z,101117.53
2022-11-12T23:55:29.406Z,101112.09
2022-11-12T23:56:01.062Z,101118.63
2022-11-12T23:56:32.529Z,101116.72
2022-11-12T23:57:03.987Z,101119.44
2022-11-12T23:57:35.444Z,101120.22
2022-11-12T23:58:06.923Z,101115.91
2022-11-12T23:58:38.352Z,101117.28
2022-11-12T23:59:09.740Z,101119.44
2022-11-12T23:59:41.157Z,101116.72
